Time;durP1;ratioP1;P1;durP2;ratioP2;P2;SDS_P1;SDS_P2;PMS_P1;PMS_P2;Temp;Humidity;BMP_temperature;BMP_pressure;BME280_temperature;BME280_humidity;BME280_pressure;Samples;Min_cycle;Max_cycle;Signal;HPM_P1;HPM_P2
2022/03/22 00:01:10;;;;;;;32.47;18.05;;;;;;;;;;4982037;28;20061;-90
2022/03/22 00:03:37;;;;;;;36.17;19.48;;;;;;;;;;4993212;28;20117;-89
2022/03/22 00:06:03;;;;;;;37.85;19.13;;;;;;;;;;5003385;28;20073;-89
2022/03/22 00:08:30;;;;;;;41.25;21.23;;;;;;;;;;4981280;28;20045;-89
2022/03/22 00:13:27;;;;;;;48.25;23.75;;;;;;;;;;5030496;28;20432;-90
2022/03/22 00:15:54;;;;;;;47.17;22.95;;;;;;;;;;5029378;28;20870;-92
2022/03/22 00:18:20;;;;;;;51.60;26.27;;;;;;;;;;5018303;28;20038;-90
2022/03/22 00:20:46;;;;;;;47.13;24.17;;;;;;;;;;5040592;28;20468;-93
2022/03/22 00:23:24;;;;;;;59.58;28.50;;;;;;;;;;5018042;28;20120;-91
2022/03/22 00:25:50;;;;;;;51.92;25.27;;;;;;;;;;5017184;28;20025;-91
2022/03/22 00:28:16;;;;;;;60.20;27.40;;;;;;;;;;5035459;28;20615;-91
2022/03/22 00:30:44;;;;;;;58.70;28.42;;;;;;;;;;5017566;28;20116;-90
2022/03/22 00:33:17;;;;;;;62.85;28.73;;;;;;;;;;5033627;28;20030;-88
2022/03/22 00:35:43;;;;;;;60.30;29.08;;;;;;;;;;5015836;28;20022;-89
2022/03/22 00:38:14;;;;;;;66.03;32.60;;;;;;;;;;5017392;28;20029;-88
2022/03/22 00:40:41;;;;;;;69.97;31.15;;;;;;;;;;5014884;28;20104;-88
2022/03/22 00:43:08;;;;;;;61.47;28.85;;;;;;;;;;5034931;28;20050;-89
2022/03/22 00:46:08;;;;;;;60.13;27.00;;;;;;;;;;5016873;28;21518;-90
2022/03/22 00:48:35;;;;;;;53.30;26.25;;;;;;;;;;5017294;28;20476;-91
2022/03/22 00:51:01;;;;;;;56.60;26.10;;;;;;;;;;5016549;28;20029;-89
2022/03/22 00:53:52;;;;;;;52.15;24.67;;;;;;;;;;5017170;28;20499;-89
2022/03/22 00:56:19;;;;;;;49.63;23.23;;;;;;;;;;5018452;28;20488;-89
2022/03/22 01:00:01;;;;;;;48.80;22.42;;;;;;;;;;5016850;28;20025;-88
2022/03/22 01:01:32;;;;;;;45.45;22.00;;;;;;;;;;5034419;28;20068;-89
2022/03/22 01:04:00;;;;;;;45.95;22.70;;;;;;;;;;5017850;28;20092;-90
2022/03/22 01:06:26;;;;;;;40.05;19.83;;;;;;;;;;5016956;28;20377;-87
2022/03/22 01:08:54;;;;;;;40.75;19.80;;;;;;;;;;5038457;28;20044;-90
2022/03/22 01:11:27;;;;;;;54.13;23.95;;;;;;;;;;5029613;28;20032;-88
2022/03/22 01:13:55;;;;;;;51.38;24.98;;;;;;;;;;5031471;28;20026;-88
2022/03/22 01:16:22;;;;;;;56.53;23.52;;;;;;;;;;5016539;28;20499;-87
2022/03/22 01:18:48;;;;;;;48.17;22.55;;;;;;;;;;5014122;28;20045;-88
2022/03/22 01:21:15;;;;;;;54.42;22.63;;;;;;;;;;5014360;28;20033;-87
2022/03/22 01:23:44;;;;;;;58.28;25.30;;;;;;;;;;5012713;28;20052;-88
2022/03/22 01:26:10;;;;;;;66.65;26.77;;;;;;;;;;5030665;28;20030;-88
2022/03/22 01:28:37;;;;;;;49.38;22.52;;;;;;;;;;5014251;28;20029;-89
2022/03/22 01:31:04;;;;;;;53.38;22.55;;;;;;;;;;5012635;28;20480;-91
2022/03/22 01:33:44;;;;;;;56.15;24.27;;;;;;;;;;5014619;28;20025;-89
2022/03/22 01:36:10;;;;;;;58.42;25.20;;;;;;;;;;5021756;28;20113;-89
2022/03/22 01:38:40;;;;;;;52.42;22.42;;;;;;;;;;5014844;28;20036;-90
2022/03/22 01:41:06;;;;;;;47.60;21.35;;;;;;;;;;5015533;28;20025;-89
2022/03/22 01:43:33;;;;;;;55.78;23.92;;;;;;;;;;5015305;28;20134;-89
2022/03/22 01:45:59;;;;;;;45.67;21.88;;;;;;;;;;5015517;28;20028;-90
2022/03/22 01:48:26;;;;;;;55.13;23.48;;;;;;;;;;5015251;28;20034;-89
2022/03/22 01:50:54;;;;;;;69.53;25.65;;;;;;;;;;5016084;28;20034;-88
2022/03/22 01:53:22;;;;;;;58.60;24.40;;;;;;;;;;5004325;28;20032;-88
2022/03/22 01:55:48;;;;;;;57.70;25.38;;;;;;;;;;5043183;28;20349;-88
2022/03/22 01:58:18;;;;;;;59.40;25.50;;;;;;;;;;5013935;28;20418;-86
2022/03/22 02:00:44;;;;;;;63.15;26.60;;;;;;;;;;5031432;28;20025;-88
2022/03/22 02:06:07;;;;;;;51.13;22.00;;;;;;;;;;5038184;28;20041;-90
2022/03/22 02:08:38;;;;;;;49.50;21.70;;;;;;;;;;5019091;28;20029;-87
2022/03/22 02:11:05;;;;;;;45.05;21.60;;;;;;;;;;5017472;28;20025;-88
2022/03/22 02:13:35;;;;;;;44.20;21.08;;;;;;;;;;5016536;28;20041;-87
2022/03/22 02:16:04;;;;;;;46.85;21.52;;;;;;;;;;5023653;28;20031;-90
2022/03/22 02:18:40;;;;;;;52.28;22.83;;;;;;;;;;5015235;28;20030;-88
2022/03/22 02:21:07;;;;;;;45.65;20.25;;;;;;;;;;5030759;28;20021;-88
2022/03/22 02:23:58;;;;;;;43.38;20.50;;;;;;;;;;5015058;28;20057;-90
2022/03/22 02:26:25;;;;;;;41.60;20.55;;;;;;;;;;5013317;28;20057;-91
2022/03/22 02:28:55;;;;;;;46.38;20.10;;;;;;;;;;5029186;28;20026;-88
2022/03/22 02:31:26;;;;;;;47.58;21.90;;;;;;;;;;5027572;28;20036;-89
2022/03/22 02:33:57;;;;;;;43.42;21.60;;;;;;;;;;5011178;28;20048;-89
2022/03/22 02:36:23;;;;;;;43.70;20.42;;;;;;;;;;5012555;28;20772;-90
2022/03/22 02:38:51;;;;;;;49.30;21.70;;;;;;;;;;5013816;28;20052;-89
2022/03/22 02:41:19;;;;;;;46.58;21.50;;;;;;;;;;5031900;28;20041;-88
2022/03/22 02:43:46;;;;;;;61.42;26.58;;;;;;;;;;5014369;28;20088;-88
2022/03/22 02:46:12;;;;;;;53.08;24.33;;;;;;;;;;5030472;28;20026;-90
2022/03/22 02:48:39;;;;;;;56.13;24.33;;;;;;;;;;5013230;28;20030;-88
2022/03/22 02:51:08;;;;;;;57.50;25.38;;;;;;;;;;5029397;28;20029;-87
2022/03/22 02:53:35;;;;;;;62.15;26.95;;;;;;;;;;5013921;28;20419;-88
2022/03/22 02:56:01;;;;;;;58.33;26.27;;;;;;;;;;5014349;28;20026;-89
2022/03/22 02:58:29;;;;;;;65.93;27.13;;;;;;;;;;5015292;28;20032;-87
2022/03/22 03:00:55;;;;;;;54.05;25.88;;;;;;;;;;5027451;28;20029;-87
2022/03/22 03:03:22;;;;;;;57.25;25.65;;;;;;;;;;5029309;28;20030;-89
2022/03/22 03:05:52;;;;;;;61.72;26.85;;;;;;;;;;5013338;28;20034;-89
2022/03/22 03:08:19;;;;;;;56.00;24.98;;;;;;;;;;5016541;28;20037;-88
2022/03/22 03:10:46;;;;;;;53.40;23.77;;;;;;;;;;5014156;28;20033;-88
2022/03/22 03:13:13;;;;;;;56.55;24.38;;;;;;;;;;5013219;28;20128;-89
2022/03/22 03:15:39;;;;;;;55.47;22.55;;;;;;;;;;5030155;28;20377;-88
2022/03/22 03:18:06;;;;;;;52.55;23.38;;;;;;;;;;5027385;28;20465;-88
2022/03/22 03:20:32;;;;;;;51.58;22.60;;;;;;;;;;5010674;28;20022;-88
2022/03/22 03:22:58;;;;;;;57.45;24.05;;;;;;;;;;5013028;28;20112;-88
2022/03/22 03:25:25;;;;;;;56.10;23.42;;;;;;;;;;5028848;28;20112;-88
2022/03/22 03:27:52;;;;;;;54.03;24.33;;;;;;;;;;5016309;28;20025;-88
2022/03/22 03:30:19;;;;;;;57.22;24.10;;;;;;;;;;5029246;28;20381;-87
2022/03/22 03:32:45;;;;;;;56.78;26.13;;;;;;;;;;5015315;28;20033;-88
2022/03/22 03:35:11;;;;;;;54.45;24.42;;;;;;;;;;5011122;28;20028;-88
2022/03/22 03:37:41;;;;;;;51.50;23.77;;;;;;;;;;5019188;28;20030;-88
2022/03/22 03:40:08;;;;;;;48.92;22.85;;;;;;;;;;5025946;28;20029;-88
2022/03/22 03:42:41;;;;;;;61.25;25.30;;;;;;;;;;5010471;28;20118;-88
2022/03/22 03:47:55;;;;;;;54.22;25.42;;;;;;;;;;5036997;28;20040;-88
2022/03/22 03:50:24;;;;;;;53.78;24.77;;;;;;;;;;5017124;28;20549;-88
2022/03/22 03:53:09;;;;;;;58.33;25.40;;;;;;;;;;5009686;28;20030;-87
2022/03/22 03:55:38;;;;;;;50.90;24.70;;;;;;;;;;5032711;28;20021;-88
2022/03/22 03:58:12;;;;;;;55.88;25.42;;;;;;;;;;5024255;28;20499;-88
2022/03/22 04:00:39;;;;;;;58.75;26.80;;;;;;;;;;5033144;28;20032;-88
2022/03/22 04:03:05;;;;;;;58.00;26.73;;;;;;;;;;5017722;28;20115;-89
2022/03/22 04:05:32;;;;;;;49.42;24.38;;;;;;;;;;5015901;28;20480;-88
2022/03/22 04:07:58;;;;;;;56.10;26.67;;;;;;;;;;5040056;28;20036;-89
2022/03/22 04:10:25;;;;;;;55.88;25.95;;;;;;;;;;5012868;28;20095;-89
2022/03/22 04:12:51;;;;;;;58.15;28.52;;;;;;;;;;5012422;28;20677;-89
2022/03/22 04:15:17;;;;;;;58.72;27.90;;;;;;;;;;5016598;28;20502;-89
2022/03/22 04:17:43;;;;;;;67.38;30.02;;;;;;;;;;5032627;28;20030;-88
2022/03/22 04:20:11;;;;;;;71.90;32.03;;;;;;;;;;5033855;28;20435;-90
2022/03/22 04:22:37;;;;;;;61.72;30.25;;;;;;;;;;5033454;28;20026;-90
2022/03/22 04:25:06;;;;;;;60.17;28.40;;;;;;;;;;5018176;28;20025;-89
2022/03/22 04:33:11;;;;;;;63.13;30.52;;;;;;;;;;5036859;28;20040;-88
2022/03/22 04:35:55;;;;;;;65.53;31.17;;;;;;;;;;5020271;28;20108;-90
2022/03/22 04:38:21;;;;;;;62.58;29.95;;;;;;;;;;5014098;28;20037;-88
2022/03/22 04:41:01;;;;;;;60.63;30.88;;;;;;;;;;5016733;28;20449;-89
2022/03/22 04:43:28;;;;;;;61.50;30.65;;;;;;;;;;5034729;28;20025;-91
2022/03/22 04:46:10;;;;;;;62.28;32.08;;;;;;;;;;5040729;28;20029;-90
2022/03/22 04:48:37;;;;;;;62.10;31.10;;;;;;;;;;5035544;28;20041;-90
2022/03/22 04:56:43;;;;;;;57.33;28.98;;;;;;;;;;5034549;28;20072;-92
2022/03/22 04:59:10;;;;;;;53.65;26.80;;;;;;;;;;4670603;28;10000557;-91
2022/03/22 05:04:43;;;;;;;55.80;29.73;;;;;;;;;;5025532;28;20025;-89
2022/03/22 05:07:10;;;;;;;58.97;29.42;;;;;;;;;;5032366;28;20079;-89
2022/03/22 05:09:37;;;;;;;52.22;26.38;;;;;;;;;;5036086;28;20029;-90
2022/03/22 05:12:04;;;;;;;65.53;32.75;;;;;;;;;;5020804;28;20041;-88
2022/03/22 05:14:31;;;;;;;63.85;30.63;;;;;;;;;;5039702;28;20463;-88
2022/03/22 05:17:03;;;;;;;68.65;34.53;;;;;;;;;;5028450;28;20514;-88
2022/03/22 05:19:29;;;;;;;65.28;33.90;;;;;;;;;;5027154;28;20056;-90
2022/03/22 05:22:04;;;;;;;70.85;34.20;;;;;;;;;;5032148;28;20029;-88
2022/03/22 05:24:31;;;;;;;65.43;32.28;;;;;;;;;;5033720;28;20033;-90
2022/03/22 05:27:02;;;;;;;63.13;31.45;;;;;;;;;;5012964;28;20038;-88
2022/03/22 05:29:28;;;;;;;63.58;32.50;;;;;;;;;;5016540;28;20029;-89
2022/03/22 05:31:56;;;;;;;60.97;30.48;;;;;;;;;;5020003;28;20484;-88
2022/03/22 05:34:22;;;;;;;61.15;29.90;;;;;;;;;;5026389;28;20120;-87
2022/03/22 05:36:49;;;;;;;64.30;33.33;;;;;;;;;;5034498;28;20033;-87
2022/03/22 05:39:16;;;;;;;66.00;33.30;;;;;;;;;;5017916;28;20392;-87
2022/03/22 05:41:42;;;;;;;64.88;31.85;;;;;;;;;;5017362;28;20104;-90
2022/03/22 05:46:35;;;;;;;58.35;30.15;;;;;;;;;;5023247;28;20025;-89
2022/03/22 05:49:01;;;;;;;55.88;28.05;;;;;;;;;;5014175;28;20045;-90
2022/03/22 05:51:28;;;;;;;53.28;26.30;;;;;;;;;;5012235;28;20104;-90
2022/03/22 05:56:54;;;;;;;60.08;29.88;;;;;;;;;;5013940;28;20042;-88
2022/03/22 05:59:34;;;;;;;50.78;25.95;;;;;;;;;;5002727;28;20045;-91
2022/03/22 06:02:00;;;;;;;51.85;28.15;;;;;;;;;;4997859;28;20034;-90
2022/03/22 06:04:51;;;;;;;56.72;27.83;;;;;;;;;;4997180;28;20061;-91
2022/03/22 06:07:19;;;;;;;58.08;28.27;;;;;;;;;;5012854;28;20026;-92
2022/03/22 06:10:15;;;;;;;64.05;29.77;;;;;;;;;;5014493;28;20022;-93
2022/03/22 06:12:44;;;;;;;52.90;27.42;;;;;;;;;;4997423;28;20044;-94
2022/03/22 06:15:14;;;;;;;50.85;26.40;;;;;;;;;;4994455;28;20527;-93
2022/03/22 06:18:01;;;;;;;48.60;25.35;;;;;;;;;;5012834;28;20029;-92
2022/03/22 06:20:30;;;;;;;52.05;24.90;;;;;;;;;;5008844;28;20464;-91
2022/03/22 06:22:58;;;;;;;46.20;24.40;;;;;;;;;;4994464;28;20037;-92
2022/03/22 06:25:24;;;;;;;49.88;24.33;;;;;;;;;;5003291;28;20026;-91
2022/03/22 06:28:14;;;;;;;41.42;23.25;;;;;;;;;;4994194;28;20129;-90
2022/03/22 06:30:41;;;;;;;47.05;24.30;;;;;;;;;;4994378;28;20038;-90
2022/03/22 06:36:29;;;;;;;42.55;22.73;;;;;;;;;;5015138;28;20025;-91
2022/03/22 06:38:55;;;;;;;46.88;23.40;;;;;;;;;;5029320;28;20026;-93
2022/03/22 06:44:25;;;;;;;41.67;22.73;;;;;;;;;;5035295;28;20072;-91
2022/03/22 06:47:20;;;;;;;40.90;22.30;;;;;;;;;;5033128;28;20485;-92
2022/03/22 06:49:47;;;;;;;32.72;17.42;;;;;;;;;;4998977;28;20034;-92
2022/03/22 06:52:35;;;;;;;39.53;19.83;;;;;;;;;;4999158;28;20497;-91
2022/03/22 06:55:01;;;;;;;38.50;19.08;;;;;;;;;;5000263;28;20068;-92
2022/03/22 06:57:41;;;;;;;41.05;20.83;;;;;;;;;;4981791;28;20027;-95
2022/03/22 07:00:09;;;;;;;25.05;14.27;;;;;;;;;;4997529;28;20034;-91
2022/03/22 07:02:42;;;;;;;23.90;11.65;;;;;;;;;;4996127;28;20034;-92
2022/03/22 07:05:09;;;;;;;19.27;9.75;;;;;;;;;;4996060;28;20057;-93
2022/03/22 07:07:35;;;;;;;22.42;10.07;;;;;;;;;;4979354;28;20026;-91
2022/03/22 07:10:20;;;;;;;18.80;10.45;;;;;;;;;;4979497;28;20030;-92
2022/03/22 07:12:54;;;;;;;22.77;9.45;;;;;;;;;;4978688;28;20037;-95
2022/03/22 07:15:37;;;;;;;23.55;9.68;;;;;;;;;;4979135;28;20448;-92
2022/03/22 07:21:07;;;;;;;23.08;12.00;;;;;;;;;;4995250;28;20030;-90
2022/03/22 07:24:01;;;;;;;33.45;14.93;;;;;;;;;;4980295;28;20483;-93
2022/03/22 07:26:28;;;;;;;44.75;19.45;;;;;;;;;;5009993;28;20045;-93
2022/03/22 07:28:54;;;;;;;51.85;21.45;;;;;;;;;;4997406;28;20038;-91
2022/03/22 07:37:32;;;;;;;78.55;35.60;;;;;;;;;;4998982;28;20069;-91
2022/03/22 07:43:23;;;;;;;89.13;41.25;;;;;;;;;;4995109;28;20106;-90
2022/03/22 07:45:50;;;;;;;86.30;40.30;;;;;;;;;;4978033;28;20494;-92
2022/03/22 07:48:16;;;;;;;82.05;38.58;;;;;;;;;;4982304;28;20046;-90
2022/03/22 07:53:29;;;;;;;65.38;28.05;;;;;;;;;;4978348;28;20042;-92
2022/03/22 07:55:56;;;;;;;64.82;25.00;;;;;;;;;;4976505;28;20027;-89
2022/03/22 07:58:22;;;;;;;77.95;28.10;;;;;;;;;;4976014;28;20155;-89
2022/03/22 08:01:04;;;;;;;82.10;26.35;;;;;;;;;;4959984;28;20117;-90
2022/03/22 08:03:30;;;;;;;67.90;27.23;;;;;;;;;;4976513;28;20030;-90
2022/03/22 08:06:00;;;;;;;52.13;24.63;;;;;;;;;;4978573;28;20022;-90
2022/03/22 08:08:26;;;;;;;62.47;28.60;;;;;;;;;;4988658;28;20031;-89
2022/03/22 08:10:52;;;;;;;60.47;26.75;;;;;;;;;;4986027;28;20465;-91
2022/03/22 08:13:27;;;;;;;66.70;29.30;;;;;;;;;;4978550;28;20031;-90
2022/03/22 08:15:54;;;;;;;68.13;30.92;;;;;;;;;;4987412;28;20018;-90
2022/03/22 08:18:30;;;;;;;68.78;33.10;;;;;;;;;;4963269;28;20043;-91
2022/03/22 08:20:57;;;;;;;64.13;30.45;;;;;;;;;;4978854;28;20070;-91
2022/03/22 08:23:29;;;;;;;65.55;30.10;;;;;;;;;;4976749;28;20046;-90
2022/03/22 08:25:58;;;;;;;61.50;32.20;;;;;;;;;;4987223;28;20085;-91
2022/03/22 08:28:29;;;;;;;59.85;30.45;;;;;;;;;;4958969;28;20426;-91
2022/03/22 08:30:55;;;;;;;54.33;28.08;;;;;;;;;;4983568;28;20030;-92
2022/03/22 08:33:32;;;;;;;52.92;25.65;;;;;;;;;;4960135;28;20394;-91
2022/03/22 08:35:58;;;;;;;47.50;26.17;;;;;;;;;;4973369;28;20027;-90
2022/03/22 08:38:25;;;;;;;46.90;27.08;;;;;;;;;;4988352;28;20034;-92
2022/03/22 08:40:53;;;;;;;54.90;26.58;;;;;;;;;;4978563;28;20034;-89
2022/03/22 08:43:20;;;;;;;50.15;26.67;;;;;;;;;;4983141;28;20044;-92
2022/03/22 08:45:47;;;;;;;57.15;27.48;;;;;;;;;;4978348;28;20050;-92
2022/03/22 08:48:17;;;;;;;51.38;25.30;;;;;;;;;;4972219;28;20047;-91
2022/03/22 08:50:44;;;;;;;45.35;24.58;;;;;;;;;;4957785;28;20066;-91
2022/03/22 08:53:11;;;;;;;52.75;26.58;;;;;;;;;;4963684;28;20030;-91
2022/03/22 08:55:38;;;;;;;43.28;24.52;;;;;;;;;;4961654;28;20014;-90
2022/03/22 08:58:08;;;;;;;35.85;21.85;;;;;;;;;;4978728;28;20030;-91
2022/03/22 09:00:35;;;;;;;37.63;21.08;;;;;;;;;;4966186;28;20043;-93
2022/03/22 09:03:08;;;;;;;36.60;20.88;;;;;;;;;;4964243;28;20019;-95
2022/03/22 09:08:36;;;;;;;37.20;19.08;;;;;;;;;;4977404;28;20097;-93
2022/03/22 09:11:02;;;;;;;41.22;20.55;;;;;;;;;;4972321;28;20035;-93
2022/03/22 09:13:29;;;;;;;37.72;20.55;;;;;;;;;;4966035;28;20034;-94
2022/03/22 09:18:59;;;;;;;42.90;21.65;;;;;;;;;;4957733;28;20042;-95
2022/03/22 09:24:29;;;;;;;40.45;21.40;;;;;;;;;;4957931;29;20081;-89
2022/03/22 09:27:00;;;;;;;37.47;21.52;;;;;;;;;;4956916;28;20035;-91
2022/03/22 09:29:26;;;;;;;44.08;22.80;;;;;;;;;;4975384;28;20031;-91
2022/03/22 09:31:57;;;;;;;34.15;19.60;;;;;;;;;;4975243;28;20027;-90
2022/03/22 09:34:25;;;;;;;36.80;20.67;;;;;;;;;;4978061;28;20034;-91
2022/03/22 09:36:54;;;;;;;32.15;18.92;;;;;;;;;;4964049;28;20030;-91
2022/03/22 09:39:24;;;;;;;36.63;19.65;;;;;;;;;;4971488;28;20047;-90
2022/03/22 09:45:27;;;;;;;35.50;18.27;;;;;;;;;;4935735;29;20035;-89
2022/03/22 10:16:50;;;;;;;37.47;20.75;;;;;;;;;;4988609;28;20056;-92
2022/03/22 10:19:19;;;;;;;34.17;18.65;;;;;;;;;;4979578;28;20465;-93
2022/03/22 10:21:46;;;;;;;31.75;18.52;;;;;;;;;;4993874;28;20029;-92
2022/03/22 10:24:18;;;;;;;31.70;18.30;;;;;;;;;;4993353;28;20112;-89
2022/03/22 10:26:46;;;;;;;37.85;18.38;;;;;;;;;;4993902;28;20033;-89
2022/03/22 10:29:22;;;;;;;38.20;18.65;;;;;;;;;;4994765;28;20038;-90
2022/03/22 10:31:49;;;;;;;32.85;18.70;;;;;;;;;;5002926;28;20074;-92
2022/03/22 10:34:15;;;;;;;34.30;19.25;;;;;;;;;;4993530;28;20034;-92
2022/03/22 10:36:45;;;;;;;33.20;18.20;;;;;;;;;;4988537;28;20125;-90
2022/03/22 10:39:12;;;;;;;33.70;17.45;;;;;;;;;;4977064;28;20125;-90
2022/03/22 10:41:43;;;;;;;31.75;18.05;;;;;;;;;;4995038;28;20038;-92
2022/03/22 10:44:13;;;;;;;35.67;18.13;;;;;;;;;;4994512;28;20062;-89
2022/03/22 10:46:42;;;;;;;39.55;16.25;;;;;;;;;;4992868;28;20034;-90
2022/03/22 10:49:20;;;;;;;33.42;15.00;;;;;;;;;;4988499;28;20089;-90
2022/03/22 10:51:47;;;;;;;41.63;16.58;;;;;;;;;;4975580;28;20038;-91
2022/03/22 11:03:17;;;;;;;43.38;15.13;;;;;;;;;;5001786;28;20034;-93
2022/03/22 11:05:47;;;;;;;41.15;17.05;;;;;;;;;;5020176;28;20026;-90
2022/03/22 11:08:41;;;;;;;38.47;16.40;;;;;;;;;;4989416;28;20116;-91
2022/03/22 11:11:07;;;;;;;40.47;14.98;;;;;;;;;;5001883;28;20069;-93
2022/03/22 11:13:35;;;;;;;35.50;13.30;;;;;;;;;;4998340;28;20027;-91
2022/03/22 11:16:02;;;;;;;32.33;14.23;;;;;;;;;;5020479;28;20060;-92
2022/03/22 11:18:30;;;;;;;33.05;15.52;;;;;;;;;;5011571;28;20122;-91
2022/03/22 11:21:06;;;;;;;44.75;15.05;;;;;;;;;;4995457;28;20038;-90
2022/03/22 11:23:34;;;;;;;42.70;16.75;;;;;;;;;;5013613;28;20037;-92
2022/03/22 11:29:03;;;;;;;46.97;18.48;;;;;;;;;;4998301;28;20029;-91
2022/03/22 11:31:31;;;;;;;43.15;17.23;;;;;;;;;;4981850;28;20034;-91
2022/03/22 11:34:20;;;;;;;37.22;17.10;;;;;;;;;;4996952;28;20037;-94
2022/03/22 11:36:48;;;;;;;34.60;15.93;;;;;;;;;;5002378;28;20058;-93
2022/03/22 11:42:34;;;;;;;38.60;18.55;;;;;;;;;;4998299;28;20029;-93
2022/03/22 11:45:02;;;;;;;44.25;19.85;;;;;;;;;;5013204;28;20033;-93
2022/03/22 11:47:49;;;;;;;43.85;19.33;;;;;;;;;;4996575;28;20034;-92
2022/03/22 11:50:18;;;;;;;35.72;17.83;;;;;;;;;;5013114;28;20182;-91
2022/03/22 11:52:45;;;;;;;37.50;18.13;;;;;;;;;;4990377;28;20035;-92
2022/03/22 11:58:15;;;;;;;37.85;16.77;;;;;;;;;;4989330;28;20033;-92
2022/03/22 12:01:00;;;;;;;35.60;15.93;;;;;;;;;;4989502;28;20034;-92
2022/03/22 12:03:31;;;;;;;28.90;14.07;;;;;;;;;;4981532;28;20042;-93
2022/03/22 12:05:58;;;;;;;33.47;15.45;;;;;;;;;;4996003;28;20125;-91
2022/03/22 12:08:36;;;;;;;35.88;15.85;;;;;;;;;;4979139;28;20042;-91
2022/03/22 12:11:02;;;;;;;37.53;18.15;;;;;;;;;;4996765;28;20737;-93
2022/03/22 12:13:34;;;;;;;37.08;17.15;;;;;;;;;;4998340;28;20030;-92
2022/03/22 12:16:01;;;;;;;43.90;18.05;;;;;;;;;;5021304;28;20038;-92
2022/03/22 12:18:28;;;;;;;40.35;17.88;;;;;;;;;;4976589;28;20049;-94
2022/03/22 12:21:02;;;;;;;39.65;18.15;;;;;;;;;;4986290;28;20494;-95
2022/03/22 12:23:29;;;;;;;40.90;17.77;;;;;;;;;;4992061;28;20042;-93
2022/03/22 12:25:56;;;;;;;44.13;17.52;;;;;;;;;;4977798;28;20509;-92
2022/03/22 12:28:30;;;;;;;34.78;16.98;;;;;;;;;;4979179;28;20042;-92
2022/03/22 12:30:57;;;;;;;37.50;16.50;;;;;;;;;;4984569;28;20370;-92
2022/03/22 12:33:45;;;;;;;39.97;17.33;;;;;;;;;;4981760;28;20473;-92
2022/03/22 12:36:11;;;;;;;44.60;17.20;;;;;;;;;;4980796;28;20430;-93
2022/03/22 12:38:42;;;;;;;41.50;16.83;;;;;;;;;;4982013;28;20461;-93
2022/03/22 12:41:09;;;;;;;44.90;18.98;;;;;;;;;;4973855;28;20398;-93
2022/03/22 12:43:45;;;;;;;54.30;20.80;;;;;;;;;;4975176;28;20034;-91
2022/03/22 12:46:12;;;;;;;37.08;16.90;;;;;;;;;;4990733;28;20359;-92
2022/03/22 12:51:42;;;;;;;31.65;15.73;;;;;;;;;;4996940;28;20037;-93
2022/03/22 12:57:13;;;;;;;32.75;15.50;;;;;;;;;;4997206;28;20108;-93
2022/03/22 13:02:46;;;;;;;43.95;23.90;;;;;;;;;;4996928;28;20393;-93
2022/03/22 13:08:21;;;;;;;65.22;31.52;;;;;;;;;;5001189;28;20017;-93
2022/03/22 13:22:51;;;;;;;72.68;39.03;;;;;;;;;;5005634;28;20097;-93
2022/03/22 13:28:22;;;;;;;71.97;39.10;;;;;;;;;;4996493;28;20507;-93
2022/03/22 13:33:55;;;;;;;77.68;39.00;;;;;;;;;;4996287;28;20033;-93
2022/03/22 13:39:25;;;;;;;72.50;37.67;;;;;;;;;;4995887;28;20155;-93
2022/03/22 13:44:55;;;;;;;78.40;41.40;;;;;;;;;;4996088;28;20034;-93
2022/03/22 13:50:27;;;;;;;84.93;41.75;;;;;;;;;;4995893;28;20030;-93
2022/03/22 13:56:01;;;;;;;89.57;46.70;;;;;;;;;;4978447;28;20061;-94
2022/03/22 15:19:37;;;;;;;87.75;40.25;;;;;;;;;;4985801;28;20577;-92
2022/03/22 15:22:04;;;;;;;84.30;42.33;;;;;;;;;;4992771;28;20047;-92
2022/03/22 15:24:30;;;;;;;90.28;45.33;;;;;;;;;;4984900;28;20026;-92
2022/03/22 15:27:00;;;;;;;84.82;42.75;;;;;;;;;;4979110;28;20113;-94
2022/03/22 15:29:28;;;;;;;82.50;41.85;;;;;;;;;;4993602;28;20069;-92
2022/03/22 15:32:03;;;;;;;87.60;43.45;;;;;;;;;;4987151;28;20038;-92
2022/03/22 15:34:30;;;;;;;94.78;45.70;;;;;;;;;;4999285;28;20512;-93
2022/03/22 15:36:56;;;;;;;79.22;40.42;;;;;;;;;;5008409;28;20509;-94
2022/03/22 15:39:23;;;;;;;90.53;42.83;;;;;;;;;;4991988;28;20125;-93
2022/03/22 15:41:49;;;;;;;83.95;41.17;;;;;;;;;;4991608;28;20051;-94
2022/03/22 15:44:17;;;;;;;84.78;42.83;;;;;;;;;;4993915;28;20088;-92
2022/03/22 15:46:43;;;;;;;77.55;40.40;;;;;;;;;;4996396;28;20392;-93
2022/03/22 15:49:15;;;;;;;80.15;41.17;;;;;;;;;;4974416;28;20070;-93
2022/03/22 15:51:41;;;;;;;92.28;42.63;;;;;;;;;;4977688;28;20030;-93
2022/03/22 15:54:09;;;;;;;86.78;42.28;;;;;;;;;;4995651;28;20045;-94
2022/03/22 15:56:35;;;;;;;88.50;42.90;;;;;;;;;;4981522;28;20418;-92
2022/03/22 15:59:03;;;;;;;86.30;42.58;;;;;;;;;;4983232;28;20297;-92
2022/03/22 16:01:30;;;;;;;93.13;43.42;;;;;;;;;;4995338;28;20031;-92
2022/03/22 16:03:59;;;;;;;85.20;42.00;;;;;;;;;;4997699;28;20034;-92
2022/03/22 16:06:29;;;;;;;89.63;43.55;;;;;;;;;;4995011;28;20031;-92
2022/03/22 16:09:13;;;;;;;91.72;43.65;;;;;;;;;;4994985;28;20413;-92
2022/03/22 16:11:39;;;;;;;93.97;45.72;;;;;;;;;;4979190;28;20046;-91
2022/03/22 16:14:18;;;;;;;110.90;52.92;;;;;;;;;;4992973;28;20400;-92
2022/03/22 16:16:45;;;;;;;125.10;56.55;;;;;;;;;;4979402;28;20038;-92
2022/03/22 16:19:11;;;;;;;142.30;60.80;;;;;;;;;;5000522;28;20509;-94
2022/03/22 16:21:39;;;;;;;152.93;61.45;;;;;;;;;;4946774;28;20035;-94
2022/03/22 16:24:06;;;;;;;143.07;58.10;;;;;;;;;;4991608;28;20070;-94
2022/03/22 16:26:44;;;;;;;155.98;64.15;;;;;;;;;;4981888;28;20042;-94
2022/03/22 16:29:16;;;;;;;150.23;61.28;;;;;;;;;;4970885;28;20039;-93
2022/03/22 16:31:48;;;;;;;152.27;60.33;;;;;;;;;;4980059;28;20062;-92
2022/03/22 16:37:19;;;;;;;148.80;59.95;;;;;;;;;;4972931;28;20513;-94
2022/03/22 16:39:45;;;;;;;141.65;57.22;;;;;;;;;;4979043;28;20129;-92
2022/03/22 16:42:27;;;;;;;160.93;59.72;;;;;;;;;;4991905;28;20393;-92
2022/03/22 16:44:54;;;;;;;159.23;60.60;;;;;;;;;;4978824;28;20069;-94
2022/03/22 16:47:24;;;;;;;163.93;60.40;;;;;;;;;;4990933;28;20046;-93
2022/03/22 16:49:52;;;;;;;148.40;60.08;;;;;;;;;;4974808;28;20454;-92
2022/03/22 16:52:24;;;;;;;145.88;58.65;;;;;;;;;;4965241;28;20066;-92
2022/03/22 16:54:57;;;;;;;156.80;59.85;;;;;;;;;;4977010;28;20038;-93
2022/03/22 16:57:24;;;;;;;142.60;57.03;;;;;;;;;;4991234;28;20769;-93
2022/03/22 17:00:07;;;;;;;161.15;59.05;;;;;;;;;;4978943;28;20038;-93
2022/03/22 17:02:34;;;;;;;135.05;52.85;;;;;;;;;;4973295;28;20034;-92
2022/03/22 17:05:25;;;;;;;131.57;52.03;;;;;;;;;;4996347;28;20123;-94
2022/03/22 17:07:51;;;;;;;116.80;48.40;;;;;;;;;;4614164;28;9999711;-92
2022/03/22 17:10:20;;;;;;;134.18;51.60;;;;;;;;;;4977083;28;20030;-94
2022/03/22 17:12:59;;;;;;;142.90;54.05;;;;;;;;;;4959706;28;20039;-92
2022/03/22 17:15:25;;;;;;;136.65;53.17;;;;;;;;;;4978638;28;20414;-93
2022/03/22 17:17:54;;;;;;;135.68;51.10;;;;;;;;;;4959756;28;20293;-93
2022/03/22 17:20:23;;;;;;;129.30;50.58;;;;;;;;;;4972711;28;20050;-92
2022/03/22 17:22:51;;;;;;;138.38;50.05;;;;;;;;;;4991709;28;20034;-93
2022/03/22 17:25:30;;;;;;;147.65;53.28;;;;;;;;;;4996255;28;20042;-93
2022/03/22 17:27:56;;;;;;;156.93;59.42;;;;;;;;;;4989176;28;20033;-92
2022/03/22 17:30:30;;;;;;;150.82;57.08;;;;;;;;;;4994325;28;20034;-92
2022/03/22 17:32:56;;;;;;;149.63;55.15;;;;;;;;;;4994190;28;20030;-91
2022/03/22 17:35:28;;;;;;;133.10;50.17;;;;;;;;;;4994152;28;20046;-94
2022/03/22 17:37:54;;;;;;;140.13;53.90;;;;;;;;;;4994271;28;20042;-93
2022/03/22 17:40:22;;;;;;;152.32;55.60;;;;;;;;;;4994316;28;20486;-91
2022/03/22 17:42:50;;;;;;;186.27;66.00;;;;;;;;;;4994479;28;20392;-93
2022/03/22 17:45:18;;;;;;;175.65;65.70;;;;;;;;;;4992596;28;20041;-92
2022/03/22 17:47:45;;;;;;;183.63;67.13;;;;;;;;;;4997572;28;20041;-92
2022/03/22 17:50:22;;;;;;;177.35;62.53;;;;;;;;;;4990677;28;20474;-92
2022/03/22 17:52:50;;;;;;;193.80;67.85;;;;;;;;;;4997184;28;20045;-92
2022/03/22 17:55:46;;;;;;;180.73;64.22;;;;;;;;;;4993280;28;20038;-93
2022/03/22 17:58:13;;;;;;;195.45;68.13;;;;;;;;;;4977799;28;20505;-92
2022/03/22 18:00:41;;;;;;;182.05;65.55;;;;;;;;;;4977828;28;20035;-94
2022/03/22 18:03:08;;;;;;;196.95;70.88;;;;;;;;;;4992542;28;20030;-93
2022/03/22 18:05:34;;;;;;;202.45;70.05;;;;;;;;;;4977167;28;20174;-92
2022/03/22 18:08:03;;;;;;;203.98;71.97;;;;;;;;;;4978093;28;20042;-92
2022/03/22 18:10:29;;;;;;;229.80;73.65;;;;;;;;;;4977825;28;20448;-91
2022/03/22 18:13:15;;;;;;;219.10;74.57;;;;;;;;;;4998243;28;20037;-93
2022/03/22 18:15:42;;;;;;;200.35;71.45;;;;;;;;;;4980471;28;20094;-91
2022/03/22 18:18:12;;;;;;;211.57;76.63;;;;;;;;;;4997699;28;20501;-92
2022/03/22 18:20:38;;;;;;;219.77;73.63;;;;;;;;;;4976497;28;20077;-91
2022/03/22 18:23:04;;;;;;;206.15;72.55;;;;;;;;;;4976401;28;20038;-93
2022/03/22 18:25:31;;;;;;;191.10;70.07;;;;;;;;;;4994079;28;20117;-92
2022/03/22 18:28:04;;;;;;;199.10;70.15;;;;;;;;;;4974823;28;20489;-92